sensor_id;sensor_type;location;lat;lon;timestamp;pressure;altitude;pressure_sealevel;temperature;humidity
85922;BME280;76459;41.484;22.090;2024-03-23T00:55:40;100174.69;;;9.51;69.81
85922;BME280;76459;41.484;22.090;2024-03-23T00:58:06;100179.91;;;9.63;68.95
85922;BME280;76459;41.484;22.090;2024-03-23T01:00:31;100177.16;;;9.68;69.07
85922;BME280;76459;41.484;22.090;2024-03-23T01:02:57;100169.44;;;9.70;68.61
85922;BME280;76459;41.484;22.090;2024-03-23T01:05:22;100170.84;;;9.62;68.14
85922;BME280;76459;41.484;22.090;2024-03-23T01:07:48;100170.00;;;9.51;67.91
85922;BME280;76459;41.484;22.090;2024-03-23T01:10:13;100164.75;;;9.45;67.65
85922;BME280;76459;41.484;22.090;2024-03-23T01:12:39;100172.13;;;9.29;68.21
85922;BME280;76459;41.484;22.090;2024-03-23T01:15:05;100172.38;;;9.17;67.60
85922;BME280;76459;41.484;22.090;2024-03-23T01:17:31;100164.09;;;9.07;67.80
85922;BME280;76459;41.484;22.090;2024-03-23T01:19:57;100167.13;;;9.01;67.28
85922;BME280;76459;41.484;22.090;2024-03-23T01:22:22;100179.25;;;9.15;66.56
85922;BME280;76459;41.484;22.090;2024-03-23T01:24:48;100178.44;;;9.09;66.07
85922;BME280;76459;41.484;22.090;2024-03-23T01:27:14;100174.81;;;9.04;66.49
85922;BME280;76459;41.484;22.090;2024-03-23T01:29:39;100175.59;;;8.94;66.58
85922;BME280;76459;41.484;22.090;2024-03-23T01:32:05;100175.88;;;8.92;66.36
85922;BME280;76459;41.484;22.090;2024-03-23T01:34:32;100176.22;;;9.11;65.77
85922;BME280;76459;41.484;22.090;2024-03-23T01:36:58;100180.69;;;9.33;65.49
85922;BME280;76459;41.484;22.090;2024-03-23T01:39:24;100172.47;;;9.43;64.80
85922;BME280;76459;41.484;22.090;2024-03-23T01:41:49;100176.88;;;9.59;64.17
85922;BME280;76459;41.484;22.090;2024-03-23T01:44:15;100187.34;;;9.67;64.06
85922;BME280;76459;41.484;22.090;2024-03-23T01:46:41;100175.50;;;9.67;63.60
85922;BME280;76459;41.484;22.090;2024-03-23T01:49:08;100183.22;;;9.75;62.99
85922;BME280;76459;41.484;22.090;2024-03-23T01:51:34;100181.84;;;9.77;62.61
85922;BME280;76459;41.484;22.090;2024-03-23T01:54:00;100174.44;;;9.73;62.43
85922;BME280;76459;41.484;22.090;2024-03-23T01:56:31;100185.13;;;9.69;62.52
85922;BME280;76459;41.484;22.090;2024-03-23T01:58:58;100175.53;;;9.62;62.37
85922;BME280;76459;41.484;22.090;2024-03-23T02:01:24;100169.19;;;9.51;62.99
85922;BME280;76459;41.484;22.090;2024-03-23T02:03:49;100176.84;;;9.49;63.17
85922;BME280;76459;41.484;22.090;2024-03-23T02:06:15;100174.38;;;9.42;63.49
85922;BME280;76459;41.484;22.090;2024-03-23T02:08:41;100173.28;;;9.48;63.24
85922;BME280;76459;41.484;22.090;2024-03-23T02:11:06;100182.91;;;9.46;63.07
85922;BME280;76459;41.484;22.090;2024-03-23T02:13:32;100182.91;;;9.46;63.04
85922;BME280;76459;41.484;22.090;2024-03-23T02:15:57;100173.81;;;9.30;63.80
85922;BME280;76459;41.484;22.090;2024-03-23T02:18:23;100183.41;;;9.22;63.92
85922;BME280;76459;41.484;22.090;2024-03-23T02:20:49;100177.59;;;9.14;64.49
85922;BME280;76459;41.484;22.090;2024-03-23T02:23:15;100168.25;;;9.10;64.49
85922;BME280;76459;41.484;22.090;2024-03-23T02:25:41;100159.38;;;8.92;64.00
85922;BME280;76459;41.484;22.090;2024-03-23T02:28:07;100170.41;;;9.03;63.29
85922;BME280;76459;41.484;22.090;2024-03-23T02:30:33;100185.00;;;9.03;63.37
85922;BME280;76459;41.484;22.090;2024-03-23T02:32:58;100180.88;;;9.01;63.08
85922;BME280;76459;41.484;22.090;2024-03-23T02:35:24;100171.16;;;8.83;63.25
85922;BME280;76459;41.484;22.090;2024-03-23T02:37:49;100173.03;;;8.72;63.35
85922;BME280;76459;41.484;22.090;2024-03-23T02:40:16;100176.16;;;8.44;64.28
85922;BME280;76459;41.484;22.090;2024-03-23T02:42:42;100174.09;;;8.24;64.35
85922;BME280;76459;41.484;22.090;2024-03-23T02:45:07;100174.63;;;8.21;64.40
85922;BME280;76459;41.484;22.090;2024-03-23T02:47:33;100176.34;;;8.32;64.30
85922;BME280;76459;41.484;22.090;2024-03-23T02:49:59;100175.84;;;8.35;64.11
85922;BME280;76459;41.484;22.090;2024-03-23T02:52:24;100177.00;;;8.44;63.83
85922;BME280;76459;41.484;22.090;2024-03-23T02:54:50;100182.28;;;8.56;64.36
85922;BME280;76459;41.484;22.090;2024-03-23T02:57:15;100191.13;;;8.68;64.20
85922;BME280;76459;41.484;22.090;2024-03-23T02:59:41;100189.00;;;8.80;63.68
85922;BME280;76459;41.484;22.090;2024-03-23T03:02:06;100193.72;;;8.90;62.97
85922;BME280;76459;41.484;22.090;2024-03-23T03:04:32;100188.53;;;8.99;63.27
85922;BME280;76459;41.484;22.090;2024-03-23T03:06:58;100183.06;;;9.04;62.89
85922;BME280;76459;41.484;22.090;2024-03-23T03:09:23;100185.56;;;9.10;62.64
85922;BME280;76459;41.484;22.090;2024-03-23T03:11:49;100188.03;;;9.12;62.68
85922;BME280;76459;41.484;22.090;2024-03-23T03:14:17;100181.72;;;9.11;62.43
85922;BME280;76459;41.484;22.090;2024-03-23T03:16:42;100185.03;;;9.13;62.30
85922;BME280;76459;41.484;22.090;2024-03-23T03:19:08;100185.00;;;9.08;62.58
85922;BME280;76459;41.484;22.090;2024-03-23T03:21:35;100185.25;;;9.07;63.10
85922;BME280;76459;41.484;22.090;2024-03-23T03:24:01;100189.38;;;8.99;63.36
85922;BME280;76459;41.484;22.090;2024-03-23T03:26:27;100185.19;;;8.86;63.49
85922;BME280;76459;41.484;22.090;2024-03-23T03:28:52;100198.41;;;8.89;63.46
85922;BME280;76459;41.484;22.090;2024-03-23T03:31:18;100182.94;;;8.73;63.94
85922;BME280;76459;41.484;22.090;2024-03-23T03:33:44;100193.31;;;8.66;64.59
85922;BME280;76459;41.484;22.090;2024-03-23T03:36:10;100191.28;;;8.46;65.35
85922;BME280;76459;41.484;22.090;2024-03-23T03:38:36;100185.88;;;8.24;64.04
85922;BME280;76459;41.484;22.090;2024-03-23T03:41:02;100202.47;;;8.02;63.86
85922;BME280;76459;41.484;22.090;2024-03-23T03:43:28;100199.19;;;7.73;64.45
85922;BME280;76459;41.484;22.090;2024-03-23T03:45:54;100202.06;;;7.57;64.71
85922;BME280;76459;41.484;22.090;2024-03-23T03:48:20;100200.06;;;7.47;65.08
85922;BME280;76459;41.484;22.090;2024-03-23T03:50:46;100206.03;;;7.44;64.91
85922;BME280;76459;41.484;22.090;2024-03-23T03:53:11;100197.31;;;6.98;66.95
85922;BME280;76459;41.484;22.090;2024-03-23T03:55:37;100197.91;;;6.83;66.55
85922;BME280;76459;41.484;22.090;2024-03-23T03:58:03;100201.06;;;6.53;66.67
85922;BME280;76459;41.484;22.090;2024-03-23T04:00:30;100202.78;;;6.21;68.10
85922;BME280;76459;41.484;22.090;2024-03-23T04:02:56;100200.56;;;6.18;68.35
85922;BME280;76459;41.484;22.090;2024-03-23T04:05:21;100195.34;;;6.16;68.82
85922;BME280;76459;41.484;22.090;2024-03-23T04:07:47;100195.09;;;6.18;68.64
85922;BME280;76459;41.484;22.090;2024-03-23T04:10:13;100199.63;;;6.29;68.19
85922;BME280;76459;41.484;22.090;2024-03-23T04:12:39;100205.19;;;6.34;68.25
85922;BME280;76459;41.484;22.090;2024-03-23T04:15:05;100208.00;;;6.22;68.40
85922;BME280;76459;41.484;22.090;2024-03-23T04:17:31;100207.09;;;6.33;68.37
85922;BME280;76459;41.484;22.090;2024-03-23T04:19:58;100207.16;;;6.55;67.56
85922;BME280;76459;41.484;22.090;2024-03-23T04:22:24;100209.88;;;6.55;67.60
85922;BME280;76459;41.484;22.090;2024-03-23T04:24:56;100217.69;;;6.47;67.92
85922;BME280;76459;41.484;22.090;2024-03-23T04:27:23;100215.22;;;6.45;68.73
85922;BME280;76459;41.484;22.090;2024-03-23T04:29:52;100212.09;;;6.58;67.52
85922;BME280;76459;41.484;22.090;2024-03-23T04:32:20;100207.88;;;6.51;67.36
85922;BME280;76459;41.484;22.090;2024-03-23T04:34:46;100217.63;;;6.63;67.08
85922;BME280;76459;41.484;22.090;2024-03-23T04:37:12;100215.25;;;6.89;66.48
85922;BME280;76459;41.484;22.090;2024-03-23T04:39:38;100215.44;;;7.04;65.45
85922;BME280;76459;41.484;22.090;2024-03-23T04:42:04;100225.47;;;7.15;64.83
85922;BME280;76459;41.484;22.090;2024-03-23T04:44:30;100219.25;;;7.25;64.13
85922;BME280;76459;41.484;22.090;2024-03-23T04:46:57;100232.44;;;7.28;64.17
85922;BME280;76459;41.484;22.090;2024-03-23T04:49:22;100224.94;;;7.18;64.47
85922;BME280;76459;41.484;22.090;2024-03-23T04:51:48;100233.59;;;6.88;65.62
85922;BME280;76459;41.484;22.090;2024-03-23T04:54:13;100229.75;;;6.68;66.16
85922;BME280;76459;41.484;22.090;2024-03-23T04:56:39;100227.00;;;6.46;66.91
85922;BME280;76459;41.484;22.090;2024-03-23T04:59:05;100232.47;;;6.29;67.43
85922;BME280;76459;41.484;22.090;2024-03-23T05:01:33;100237.84;;;5.90;68.11
85922;BME280;76459;41.484;22.090;2024-03-23T05:03:59;100236.94;;;6.01;67.99
85922;BME280;76459;41.484;22.090;2024-03-23T05:06:25;100239.00;;;6.11;67.39
85922;BME280;76459;41.484;22.090;2024-03-23T05:08:51;100234.22;;;6.35;66.74
85922;BME280;76459;41.484;22.090;2024-03-23T05:11:17;100236.09;;;6.51;65.78
85922;BME280;76459;41.484;22.090;2024-03-23T05:13:43;100241.41;;;6.80;65.02
85922;BME280;76459;41.484;22.090;2024-03-23T05:16:09;100235.63;;;6.76;65.54
85922;BME280;76459;41.484;22.090;2024-03-23T05:18:35;100234.81;;;6.76;65.94
85922;BME280;76459;41.484;22.090;2024-03-23T05:21:01;100243.78;;;6.93;65.41
85922;BME280;76459;41.484;22.090;2024-03-23T05:23:28;100240.47;;;7.13;65.26
85922;BME280;76459;41.484;22.090;2024-03-23T05:25:54;100239.78;;;7.22;65.84
85922;BME280;76459;41.484;22.090;2024-03-23T05:28:21;100237.59;;;7.25;65.59
85922;BME280;76459;41.484;22.090;2024-03-23T05:30:53;100225.44;;;7.37;65.06
85922;BME280;76459;41.484;22.090;2024-03-23T05:33:19;100242.13;;;7.63;64.58
85922;BME280;76459;41.484;22.090;2024-03-23T05:35:46;100238.25;;;7.86;63.92
85922;BME280;76459;41.484;22.090;2024-03-23T05:38:13;100238.97;;;8.03;63.17
85922;BME280;76459;41.484;22.090;2024-03-23T05:40:39;100230.88;;;8.18;62.81
85922;BME280;76459;41.484;22.090;2024-03-23T05:43:08;100241.72;;;8.35;62.40
85922;BME280;76459;41.484;22.090;2024-03-23T05:45:34;100236.34;;;8.50;62.15
85922;BME280;76459;41.484;22.090;2024-03-23T05:48:00;100214.06;;;8.47;61.96
85922;BME280;76459;41.484;22.090;2024-03-23T05:50:26;100243.56;;;8.66;61.43
85922;BME280;76459;41.484;22.090;2024-03-23T05:52:51;100242.00;;;8.76;61.00
85922;BME280;76459;41.484;22.090;2024-03-23T05:55:17;100233.25;;;8.84;60.65
85922;BME280;76459;41.484;22.090;2024-03-23T05:57:43;100236.06;;;8.94;60.44
85922;BME280;76459;41.484;22.090;2024-03-23T06:00:09;100238.56;;;9.01;60.06
85922;BME280;76459;41.484;22.090;2024-03-23T06:02:42;100235.88;;;9.11;59.77
85922;BME280;76459;41.484;22.090;2024-03-23T06:05:10;100224.63;;;9.22;59.44
85922;BME280;76459;41.484;22.090;2024-03-23T06:07:39;100232.38;;;9.31;59.40
85922;BME280;76459;41.484;22.090;2024-03-23T06:10:05;100229.81;;;9.19;59.70
85922;BME280;76459;41.484;22.090;2024-03-23T06:12:31;100237.00;;;9.20;59.34
85922;BME280;76459;41.484;22.090;2024-03-23T06:14:57;100234.53;;;9.23;59.84
85922;BME280;76459;41.484;22.090;2024-03-23T06:17:23;100230.69;;;9.24;59.87
85922;BME280;76459;41.484;22.090;2024-03-23T06:19:48;100236.50;;;9.38;59.73
85922;BME280;76459;41.484;22.090;2024-03-23T06:22:14;100227.72;;;9.41;59.49
85922;BME280;76459;41.484;22.090;2024-03-23T06:24:40;100235.47;;;9.55;59.32
85922;BME280;76459;41.484;22.090;2024-03-23T06:27:06;100236.03;;;9.62;59.37
85922;BME280;76459;41.484;22.090;2024-03-23T06:29:31;100236.03;;;9.77;58.73
85922;BME280;76459;41.484;22.090;2024-03-23T06:31:57;100239.66;;;9.93;58.29
85922;BME280;76459;41.484;22.090;2024-03-23T06:34:23;100238.00;;;10.07;58.08
85922;BME280;76459;41.484;22.090;2024-03-23T06:36:49;100235.31;;;10.22;57.66
85922;BME280;76459;41.484;22.090;2024-03-23T06:39:18;100233.09;;;10.24;57.61
85922;BME280;76459;41.484;22.090;2024-03-23T06:41:52;100239.13;;;10.31;57.67
85922;BME280;76459;41.484;22.090;2024-03-23T06:44:18;100243.25;;;10.29;57.81
85922;BME280;76459;41.484;22.090;2024-03-23T06:46:45;100230.59;;;10.43;57.42
85922;BME280;76459;41.484;22.090;2024-03-23T06:49:11;100231.66;;;10.52;57.65
85922;BME280;76459;41.484;22.090;2024-03-23T06:51:36;100235.00;;;10.54;58.14
85922;BME280;76459;41.484;22.090;2024-03-23T06:54:06;100225.88;;;10.64;57.84
85922;BME280;76459;41.484;22.090;2024-03-23T06:56:32;100222.53;;;10.77;57.72
85922;BME280;76459;41.484;22.090;2024-03-23T06:58:59;100233.78;;;10.96;57.29
85922;BME280;76459;41.484;22.090;2024-03-23T07:01:25;100226.88;;;10.99;57.13
85922;BME280;76459;41.484;22.090;2024-03-23T07:03:50;100226.03;;;11.03;56.76
85922;BME280;76459;41.484;22.090;2024-03-23T07:06:16;100228.78;;;11.08;57.08
85922;BME280;76459;41.484;22.090;2024-03-23T07:08:41;100225.94;;;11.23;56.98
85922;BME280;76459;41.484;22.090;2024-03-23T07:11:07;100223.97;;;11.39;56.35
85922;BME280;76459;41.484;22.090;2024-03-23T07:13:33;100221.97;;;11.50;55.82
85922;BME280;76459;41.484;22.090;2024-03-23T07:15:58;100210.91;;;11.55;56.07
85922;BME280;76459;41.484;22.090;2024-03-23T07:18:25;100215.22;;;11.71;55.71
85922;BME280;76459;41.484;22.090;2024-03-23T07:20:58;100215.09;;;11.92;55.37
85922;BME280;76459;41.484;22.090;2024-03-23T07:23:24;100206.78;;;11.97;54.84
85922;BME280;76459;41.484;22.090;2024-03-23T07:26:00;100207.53;;;12.07;55.10
85922;BME280;76459;41.484;22.090;2024-03-23T07:28:27;100206.56;;;12.22;54.31
85922;BME280;76459;41.484;22.090;2024-03-23T07:31:09;100202.06;;;12.31;54.14
85922;BME280;76459;41.484;22.090;2024-03-23T07:33:37;100201.75;;;12.38;54.15
85922;BME280;76459;41.484;22.090;2024-03-23T07:36:03;100194.84;;;12.35;54.38
85922;BME280;76459;41.484;22.090;2024-03-23T07:38:29;100202.22;;;12.45;54.39
85922;BME280;76459;41.484;22.090;2024-03-23T07:41:09;100200.34;;;12.64;54.11
85922;BME280;76459;41.484;22.090;2024-03-23T07:43:36;100194.59;;;12.85;53.70
85922;BME280;76459;41.484;22.090;2024-03-23T07:46:03;100188.50;;;12.88;53.39
85922;BME280;76459;41.484;22.090;2024-03-23T07:48:29;100185.06;;;12.96;53.42
85922;BME280;76459;41.484;22.090;2024-03-23T07:53:25;100178.84;;;13.09;52.90
85922;BME280;76459;41.484;22.090;2024-03-23T07:55:58;100180.91;;;13.22;52.71
85922;BME280;76459;41.484;22.090;2024-03-23T07:58:25;100178.81;;;13.33;52.26
85922;BME280;76459;41.484;22.090;2024-03-23T08:00:55;100164.91;;;13.38;51.62
85922;BME280;76459;41.484;22.090;2024-03-23T08:03:22;100167.78;;;13.52;51.11
85922;BME280;76459;41.484;22.090;2024-03-23T08:05:48;100168.44;;;13.63;50.88
85922;BME280;76459;41.484;22.090;2024-03-23T08:08:14;100159.97;;;13.73;50.34
85922;BME280;76459;41.484;22.090;2024-03-23T08:10:49;100158.16;;;13.82;50.08
85922;BME280;76459;41.484;22.090;2024-03-23T08:13:15;100162.63;;;13.97;49.77
85922;BME280;76459;41.484;22.090;2024-03-23T08:15:41;100153.84;;;14.08;49.50
85922;BME280;76459;41.484;22.090;2024-03-23T08:18:07;100153.00;;;14.08;49.51
85922;BME280;76459;41.484;22.090;2024-03-23T08:20:32;100147.84;;;14.20;49.39
85922;BME280;76459;41.484;22.090;2024-03-23T08:22:58;100148.88;;;14.38;48.61
85922;BME280;76459;41.484;22.090;2024-03-23T08:25:24;100145.78;;;14.39;48.41
85922;BME280;76459;41.484;22.090;2024-03-23T08:27:49;100147.19;;;14.56;48.53
85922;BME280;76459;41.484;22.090;2024-03-23T08:30:15;100137.16;;;14.74;48.44
85922;BME280;76459;41.484;22.090;2024-03-23T08:32:41;100145.66;;;14.91;48.06
85922;BME280;76459;41.484;22.090;2024-03-23T08:35:08;100129.59;;;15.02;46.93
85922;BME280;76459;41.484;22.090;2024-03-23T08:37:33;100129.81;;;15.19;46.76
85922;BME280;76459;41.484;22.090;2024-03-23T08:39:59;100128.44;;;15.30;46.71
85922;BME280;76459;41.484;22.090;2024-03-23T08:42:24;100121.22;;;15.43;46.34
85922;BME280;76459;41.484;22.090;2024-03-23T08:44:50;100126.22;;;15.54;45.61
85922;BME280;76459;41.484;22.090;2024-03-23T08:47:16;100123.56;;;15.49;45.65
85922;BME280;76459;41.484;22.090;2024-03-23T08:49:41;100120.47;;;15.51;45.72
85922;BME280;76459;41.484;22.090;2024-03-23T08:52:08;100102.78;;;15.47;45.90
85922;BME280;76459;41.484;22.090;2024-03-23T08:54:33;100108.31;;;15.61;45.48
85922;BME280;76459;41.484;22.090;2024-03-23T08:57:00;100098.56;;;15.63;45.16
85922;BME280;76459;41.484;22.090;2024-03-23T08:59:25;100101.34;;;15.63;44.91
85922;BME280;76459;41.484;22.090;2024-03-23T09:01:51;100100.38;;;15.68;44.97
85922;BME280;76459;41.484;22.090;2024-03-23T09:04:16;100086.50;;;15.68;44.86
85922;BME280;76459;41.484;22.090;2024-03-23T09:06:42;100088.06;;;15.82;44.42
85922;BME280;76459;41.484;22.090;2024-03-23T09:09:09;100080.66;;;16.00;43.49
85922;BME280;76459;41.484;22.090;2024-03-23T09:11:34;100081.53;;;16.09;43.21
85922;BME280;76459;41.484;22.090;2024-03-23T09:14:00;100068.66;;;16.22;42.77
85922;BME280;76459;41.484;22.090;2024-03-23T09:16:26;100059.00;;;16.20;41.92
85922;BME280;76459;41.484;22.090;2024-03-23T09:18:52;100055.41;;;16.19;42.59
85922;BME280;76459;41.484;22.090;2024-03-23T09:21:18;100046.63;;;16.26;41.87
85922;BME280;76459;41.484;22.090;2024-03-23T09:23:44;100049.00;;;16.10;40.66
85922;BME280;76459;41.484;22.090;2024-03-23T09:26:10;100051.28;;;16.08;41.67
85922;BME280;76459;41.484;22.090;2024-03-23T09:28:36;100041.34;;;16.16;41.46
85922;BME280;76459;41.484;22.090;2024-03-23T09:31:06;100034.22;;;16.32;41.00
85922;BME280;76459;41.484;22.090;2024-03-23T09:33:33;100029.66;;;16.45;40.34
85922;BME280;76459;41.484;22.090;2024-03-23T09:36:03;100022.19;;;16.62;40.28
85922;BME280;76459;41.484;22.090;2024-03-23T09:38:29;100021.47;;;16.79;39.96
85922;BME280;76459;41.484;22.090;2024-03-23T09:40:56;100016.88;;;16.83;39.88
85922;BME280;76459;41.484;22.090;2024-03-23T09:43:22;100013.44;;;16.95;39.47
85922;BME280;76459;41.484;22.090;2024-03-23T09:45:49;100001.50;;;16.94;39.57
85922;BME280;76459;41.484;22.090;2024-03-23T09:48:15;100012.66;;;17.12;39.58
85922;BME280;76459;41.484;22.090;2024-03-23T09:50:42;100005.44;;;17.28;39.78
85922;BME280;76459;41.484;22.090;2024-03-23T09:53:13;100002.63;;;17.45;38.59
85922;BME280;76459;41.484;22.090;2024-03-23T09:55:40;99999.69;;;17.50;38.27
85922;BME280;76459;41.484;22.090;2024-03-23T09:58:07;99990.03;;;17.31;36.88
85922;BME280;76459;41.484;22.090;2024-03-23T10:00:36;99984.47;;;17.22;37.27
85922;BME280;76459;41.484;22.090;2024-03-23T10:03:02;99983.19;;;17.19;36.58
85922;BME280;76459;41.484;22.090;2024-03-23T10:05:28;99977.25;;;17.38;35.38
85922;BME280;76459;41.484;22.090;2024-03-23T10:07:57;99974.44;;;17.55;34.93
85922;BME280;76459;41.484;22.090;2024-03-23T10:10:25;99976.53;;;17.67;34.62
85922;BME280;76459;41.484;22.090;2024-03-23T10:12:50;99963.28;;;17.73;34.11
85922;BME280;76459;41.484;22.090;2024-03-23T10:15:21;99962.28;;;17.77;33.95
85922;BME280;76459;41.484;22.090;2024-03-23T10:17:47;99960.28;;;17.87;33.33
85922;BME280;76459;41.484;22.090;2024-03-23T10:20:23;99956.31;;;17.96;33.33
85922;BME280;76459;41.484;22.090;2024-03-23T10:22:51;99945.94;;;18.05;33.34
85922;BME280;76459;41.484;22.090;2024-03-23T10:25:17;99943.06;;;18.23;32.63
85922;BME280;76459;41.484;22.090;2024-03-23T10:27:58;99943.28;;;18.38;31.22
85922;BME280;76459;41.484;22.090;2024-03-23T10:30:26;99936.38;;;18.45;31.38
85922;BME280;76459;41.484;22.090;2024-03-23T10:33:13;99925.03;;;18.50;31.47
85922;BME280;76459;41.484;22.090;2024-03-23T10:35:40;99924.63;;;18.60;30.72
85922;BME280;76459;41.484;22.090;2024-03-23T10:38:07;99911.25;;;18.74;30.71
85922;BME280;76459;41.484;22.090;2024-03-23T10:40:37;99915.88;;;18.91;29.75
85922;BME280;76459;41.484;22.090;2024-03-23T10:43:06;99909.53;;;19.03;29.41
85922;BME280;76459;41.484;22.090;2024-03-23T10:45:33;99902.78;;;19.04;28.28
85922;BME280;76459;41.484;22.090;2024-03-23T10:47:59;99890.44;;;19.05;27.41
85922;BME280;76459;41.484;22.090;2024-03-23T10:50:25;99888.66;;;19.00;27.58
85922;BME280;76459;41.484;22.090;2024-03-23T10:52:52;99880.44;;;19.04;27.83
85922;BME280;76459;41.484;22.090;2024-03-23T10:55:20;99876.16;;;19.06;28.11
85922;BME280;76459;41.484;22.090;2024-03-23T10:57:51;99877.06;;;19.10;28.31
85922;BME280;76459;41.484;22.090;2024-03-23T11:00:18;99866.59;;;19.07;28.29
85922;BME280;76459;41.484;22.090;2024-03-23T11:02:43;99865.44;;;19.08;28.00
85922;BME280;76459;41.484;22.090;2024-03-23T11:07:50;99855.22;;;19.12;28.64
85922;BME280;76459;41.484;22.090;2024-03-23T11:10:43;99845.72;;;19.25;27.95
85922;BME280;76459;41.484;22.090;2024-03-23T11:13:22;99839.31;;;19.25;27.55
85922;BME280;76459;41.484;22.090;2024-03-23T11:15:49;99830.47;;;19.23;27.29
85922;BME280;76459;41.484;22.090;2024-03-23T11:18:21;99828.72;;;19.31;26.45
85922;BME280;76459;41.484;22.090;2024-03-23T11:20:47;99829.22;;;19.33;26.73
85922;BME280;76459;41.484;22.090;2024-03-23T11:23:28;99823.03;;;19.39;26.87
85922;BME280;76459;41.484;22.090;2024-03-23T11:25:54;99813.03;;;19.50;27.21
85922;BME280;76459;41.484;22.090;2024-03-23T11:28:20;99807.81;;;19.61;26.75
85922;BME280;76459;41.484;22.090;2024-03-23T11:30:47;99791.91;;;19.74;25.70
85922;BME280;76459;41.484;22.090;2024-03-23T11:33:12;99793.72;;;19.82;25.92
85922;BME280;76459;41.484;22.090;2024-03-23T11:35:39;99778.94;;;19.81;25.54
85922;BME280;76459;41.484;22.090;2024-03-23T11:38:10;99782.34;;;19.75;25.99
85922;BME280;76459;41.484;22.090;2024-03-23T11:40:42;99776.63;;;19.71;26.21
85922;BME280;76459;41.484;22.090;2024-03-23T11:45:51;99771.72;;;19.80;25.26
85922;BME280;76459;41.484;22.090;2024-03-23T11:48:22;99759.25;;;19.90;25.17
85922;BME280;76459;41.484;22.090;2024-03-23T11:50:50;99758.66;;;19.97;24.88
85922;BME280;76459;41.484;22.090;2024-03-23T11:53:22;99745.84;;;19.96;25.14
85922;BME280;76459;41.484;22.090;2024-03-23T11:55:50;99747.38;;;19.93;24.85
85922;BME280;76459;41.484;22.090;2024-03-23T11:58:18;99739.22;;;19.88;24.25
85922;BME280;76459;41.484;22.090;2024-03-23T12:01:00;99732.16;;;19.66;23.39
85922;BME280;76459;41.484;22.090;2024-03-23T12:03:27;99735.53;;;19.60;23.81
85922;BME280;76459;41.484;22.090;2024-03-23T12:06:01;99714.22;;;19.67;24.21
85922;BME280;76459;41.484;22.090;2024-03-23T12:08:36;99715.34;;;19.78;23.75
85922;BME280;76459;41.484;22.090;2024-03-23T12:11:15;99717.13;;;19.59;23.70
85922;BME280;76459;41.484;22.090;2024-03-23T12:13:42;99712.78;;;19.49;24.12
85922;BME280;76459;41.484;22.090;2024-03-23T12:16:11;99706.16;;;19.53;24.34
85922;BME280;76459;41.484;22.090;2024-03-23T12:18:38;99703.84;;;19.68;23.96
85922;BME280;76459;41.484;22.090;2024-03-23T12:21:05;99695.19;;;19.85;24.31
85922;BME280;76459;41.484;22.090;2024-03-23T12:23:31;99691.69;;;19.88;23.42
85922;BME280;76459;41.484;22.090;2024-03-23T12:25:58;99691.09;;;19.95;23.15
85922;BME280;76459;41.484;22.090;2024-03-23T12:28:24;99690.97;;;20.03;22.78
85922;BME280;76459;41.484;22.090;2024-03-23T12:30:51;99679.16;;;20.10;23.24
85922;BME280;76459;41.484;22.090;2024-03-23T12:33:20;99678.09;;;20.14;23.22
85922;BME280;76459;41.484;22.090;2024-03-23T12:35:47;99675.28;;;20.14;22.88
85922;BME280;76459;41.484;22.090;2024-03-23T12:38:13;99679.41;;;20.05;22.91
85922;BME280;76459;41.484;22.090;2024-03-23T12:40:38;99658.28;;;19.79;22.45
85922;BME280;76459;41.484;22.090;2024-03-23T12:43:04;99656.50;;;19.87;22.55
85922;BME280;76459;41.484;22.090;2024-03-23T12:45:29;99654.47;;;20.00;22.20
85922;BME280;76459;41.484;22.090;2024-03-23T12:47:55;99653.97;;;20.10;21.78
85922;BME280;76459;41.484;22.090;2024-03-23T12:50:21;99649.38;;;19.90;21.57
85922;BME280;76459;41.484;22.090;2024-03-23T12:52:47;99640.47;;;19.72;21.31
85922;BME280;76459;41.484;22.090;2024-03-23T12:55:12;99625.28;;;19.45;21.63
85922;BME280;76459;41.484;22.090;2024-03-23T12:57:38;99625.81;;;19.50;21.42
85922;BME280;76459;41.484;22.090;2024-03-23T13:00:04;99623.28;;;19.45;21.25
85922;BME280;76459;41.484;22.090;2024-03-23T13:02:30;99615.72;;;19.58;21.49
85922;BME280;76459;41.484;22.090;2024-03-23T13:04:56;99610.91;;;19.71;21.49
85922;BME280;76459;41.484;22.090;2024-03-23T13:07:22;99609.56;;;19.80;21.04
85922;BME280;76459;41.484;22.090;2024-03-23T13:09:52;99602.41;;;19.67;20.86
85922;BME280;76459;41.484;22.090;2024-03-23T13:12:21;99593.94;;;19.64;20.99
85922;BME280;76459;41.484;22.090;2024-03-23T13:14:47;99591.00;;;19.60;20.84
85922;BME280;76459;41.484;22.090;2024-03-23T13:17:13;99590.38;;;19.79;21.02
85922;BME280;76459;41.484;22.090;2024-03-23T13:19:39;99576.81;;;19.93;20.69
85922;BME280;76459;41.484;22.090;2024-03-23T13:22:05;99565.28;;;20.10;21.14
85922;BME280;76459;41.484;22.090;2024-03-23T13:24:31;99577.03;;;20.44;20.44
85922;BME280;76459;41.484;22.090;2024-03-23T13:26:57;99568.91;;;20.55;19.61
85922;BME280;76459;41.484;22.090;2024-03-23T13:29:24;99571.16;;;20.65;19.53
85922;BME280;76459;41.484;22.090;2024-03-23T13:31:51;99533.50;;;20.47;19.76
85922;BME280;76459;41.484;22.090;2024-03-23T13:34:18;99564.28;;;20.62;19.67
85922;BME280;76459;41.484;22.090;2024-03-23T13:36:45;99561.03;;;20.76;19.58
85922;BME280;76459;41.484;22.090;2024-03-23T13:39:11;99556.59;;;20.75;19.08
85922;BME280;76459;41.484;22.090;2024-03-23T13:41:41;99553.25;;;20.85;19.44
85922;BME280;76459;41.484;22.090;2024-03-23T13:44:07;99547.72;;;20.89;19.63
85922;BME280;76459;41.484;22.090;2024-03-23T13:46:33;99541.69;;;20.87;19.43
85922;BME280;76459;41.484;22.090;2024-03-23T13:48:59;99545.84;;;20.77;19.27